createdAt,value
2019-01-08T00:00:08.436Z,11
2019-01-08T00:05:08.444Z,9
2019-01-08T00:10:10.571Z,8
2019-01-08T00:15:08.311Z,6
2019-01-08T00:20:08.307Z,9
2019-01-08T00:25:08.327Z,14
2019-01-08T00:30:08.703Z,14
2019-01-08T00:35:08.276Z,10
2019-01-08T00:40:08.245Z,8
2019-01-08T00:45:08.081Z,9
2019-01-08T00:50:08.308Z,10
2019-01-08T00:55:09.348Z,9
2019-01-08T01:00:08.723Z,6
2019-01-08T01:05:08.228Z,9
2019-01-08T01:10:10.227Z,5
2019-01-08T01:15:08.927Z,9
2019-01-08T01:20:08.879Z,10
2019-01-08T01:25:09.332Z,8
2019-01-08T01:30:08.227Z,8
2019-01-08T01:35:08.210Z,8
2019-01-08T01:40:09.542Z,9
2019-01-08T01:45:08.168Z,11
2019-01-08T01:50:08.470Z,9
2019-01-08T01:55:08.129Z,10
2019-01-08T02:00:08.308Z,8
2019-01-08T02:05:07.932Z,8
2019-01-08T02:10:09.583Z,9
2019-01-08T02:15:08.175Z,9
2019-01-08T02:20:08.212Z,11
2019-01-08T02:25:09.701Z,11
2019-01-08T02:30:08.012Z,11
2019-01-08T02:35:08.494Z,8
2019-01-08T02:40:09.679Z,8
2019-01-08T02:45:08.459Z,12
2019-01-08T02:50:08.739Z,11
2019-01-08T02:55:04.565Z,11
2019-01-08T03:00:45.661Z,11
2019-01-08T03:05:00.375Z,11
2019-01-08T03:10:00.639Z,11
2019-01-08T03:15:00.695Z,10
2019-01-08T03:20:00.430Z,8
2019-01-08T03:25:00.448Z,10
2019-01-08T03:30:00.280Z,8
2019-01-08T03:35:00.401Z,8
2019-01-08T03:40:00.578Z,12
2019-01-08T03:45:01.725Z,9
2019-01-08T03:50:00.644Z,6
2019-01-08T03:55:01.382Z,10
2019-01-08T04:00:00.489Z,8
2019-01-08T04:05:00.226Z,13
2019-01-08T04:10:00.363Z,11
2019-01-08T04:15:00.325Z,11
2019-01-08T04:20:00.434Z,11
2019-01-08T04:25:50.895Z,9
2019-01-08T04:30:00.383Z,12
2019-01-08T04:35:00.433Z,8
2019-01-08T04:40:00.244Z,13
2019-01-08T04:45:00.234Z,12
2019-01-08T04:50:00.319Z,11
2019-01-08T04:55:00.312Z,9
2019-01-08T05:00:01.273Z,9
2019-01-08T05:05:00.322Z,11
2019-01-08T05:10:00.417Z,9
2019-01-08T05:15:00.008Z,9
2019-01-08T05:20:00.352Z,10
2019-01-08T05:25:00.171Z,13
2019-01-08T05:30:07.988Z,13
2019-01-08T05:35:00.282Z,9
2019-01-08T05:40:00.278Z,8
2019-01-08T05:45:00.182Z,9
2019-01-08T05:50:00.363Z,8
2019-01-08T05:55:00.358Z,11
2019-01-08T06:00:00.258Z,8
2019-01-08T06:05:00.023Z,11
2019-01-08T06:10:00.221Z,10
2019-01-08T06:15:00.022Z,5
2019-01-08T06:20:00.083Z,8
2019-01-08T06:25:00.700Z,7
2019-01-08T06:30:00.001Z,7
2019-01-08T06:35:00.366Z,8
2019-01-08T06:39:59.856Z,7
2019-01-08T06:44:59.818Z,7
2019-01-08T06:50:00.034Z,6
2019-01-08T06:54:59.952Z,8
2019-01-08T07:00:00.598Z,5
2019-01-08T07:04:59.853Z,9
2019-01-08T07:10:00.250Z,8
2019-01-08T07:14:59.789Z,11
2019-01-08T07:20:00.266Z,8
2019-01-08T07:25:00.013Z,9
2019-01-08T07:29:59.933Z,9
2019-01-08T07:35:00.015Z,9
2019-01-08T07:39:59.749Z,9
2019-01-08T07:45:00.043Z,10
2019-01-08T07:50:00.048Z,12
2019-01-08T07:54:59.975Z,14
2019-01-08T08:00:00.060Z,11
2019-01-08T08:05:00.084Z,10
2019-01-08T08:10:00.098Z,15
2019-01-08T08:15:00.035Z,13
2019-01-08T08:19:59.948Z,11
2019-01-08T08:25:00.010Z,16
2019-01-08T08:29:59.789Z,10
2019-01-08T08:35:07.921Z,11
2019-01-08T08:39:59.992Z,13
2019-01-08T08:45:00.017Z,8
2019-01-08T08:50:00.049Z,10
2019-01-08T08:54:59.940Z,11
2019-01-08T08:59:59.915Z,10
2019-01-08T09:04:59.844Z,10
2019-01-08T09:09:59.893Z,8
2019-01-08T09:15:00.317Z,8
2019-01-08T09:19:59.951Z,14
2019-01-08T09:24:59.757Z,10
2019-01-08T09:29:59.708Z,11
2019-01-08T09:34:59.780Z,13
2019-01-08T09:39:59.673Z,12
2019-01-08T09:44:59.684Z,11
2019-01-08T09:49:59.978Z,11
2019-01-08T09:54:59.704Z,11
2019-01-08T09:59:59.933Z,9
2019-01-08T10:04:59.653Z,9
2019-01-08T10:09:59.675Z,11
2019-01-08T10:14:59.615Z,9
2019-01-08T10:19:59.829Z,11
2019-01-08T10:25:00.333Z,11
2019-01-08T10:30:00.547Z,11
2019-01-08T10:34:59.717Z,11
2019-01-08T10:40:01.499Z,11
2019-01-08T10:44:59.703Z,11
2019-01-08T10:49:59.813Z,11
2019-01-08T10:55:00.458Z,11
2019-01-08T10:59:59.915Z,11
2019-01-08T11:04:59.621Z,11
2019-01-08T11:10:01.475Z,11
2019-01-08T11:14:59.999Z,11
2019-01-08T11:19:59.905Z,11
2019-01-08T11:25:00.423Z,11
2019-01-08T11:29:59.691Z,11
2019-01-08T11:34:59.740Z,11
2019-01-08T11:40:02.349Z,11
2019-01-08T11:45:01.310Z,11
2019-01-08T11:49:59.890Z,11
2019-01-08T11:54:59.668Z,11
2019-01-08T11:59:59.846Z,11
2019-01-08T12:04:59.885Z,11
2019-01-08T12:10:00.100Z,11
2019-01-08T12:15:00.374Z,11
2019-01-08T12:19:59.744Z,11
2019-01-08T12:25:00.491Z,11
2019-01-08T12:29:59.934Z,11
2019-01-08T12:34:59.852Z,11
2019-01-08T12:39:59.850Z,11
2019-01-08T12:59:26.938Z,11
2019-01-08T12:59:56.253Z,11
2019-01-08T13:00:05.145Z,11
2019-01-08T13:00:33.134Z,11
2019-01-08T13:05:01.122Z,11
2019-01-08T13:10:01.837Z,11
2019-01-08T13:15:00.974Z,11
2019-01-08T13:19:59.966Z,11
2019-01-08T13:25:01.977Z,11
2019-01-08T13:30:12.986Z,11
2019-01-08T13:35:00.277Z,11
2019-01-08T14:00:07.008Z,44
2019-01-08T14:05:01.224Z,44
2019-01-08T14:10:01.312Z,44
2019-01-08T14:15:00.965Z,44
2019-01-08T14:20:01.017Z,44
2019-01-08T14:25:01.160Z,44
2019-01-08T14:30:01.162Z,44
2019-01-08T14:35:01.001Z,44
2019-01-08T14:40:01.259Z,44
2019-01-08T14:46:03.250Z,44
2019-01-08T14:50:02.253Z,44
2019-01-08T14:55:02.754Z,44
2019-01-08T15:00:01.960Z,44
2019-01-08T15:05:01.164Z,44
2019-01-08T15:10:03.752Z,44
2019-01-08T15:15:01.139Z,44
2019-01-08T15:20:02.056Z,44
2019-01-08T15:25:02.425Z,11
2019-01-08T15:30:01.278Z,7
2019-01-08T15:35:02.408Z,10
2019-01-08T15:40:02.051Z,7
2019-01-08T15:45:01.596Z,8
2019-01-08T15:50:01.540Z,8
2019-01-08T15:55:00.965Z,9
2019-01-08T16:00:01.379Z,10
2019-01-08T16:05:01.035Z,8
2019-01-08T16:10:02.313Z,7
2019-01-08T16:15:00.991Z,7
2019-01-08T16:20:01.101Z,10
2019-01-08T16:25:00.955Z,10
2019-01-08T16:30:00.920Z,10
2019-01-08T16:35:01.379Z,10
2019-01-08T16:40:01.084Z,8
2019-01-08T16:45:01.202Z,9
2019-01-08T16:50:01.118Z,10
2019-01-08T16:55:01.997Z,8
2019-01-08T17:00:00.938Z,11
2019-01-08T17:05:01.415Z,8
2019-01-08T17:10:02.197Z,8
2019-01-08T17:15:01.517Z,8
2019-01-08T17:20:01.319Z,8
2019-01-08T17:25:00.824Z,8
2019-01-08T17:30:01.011Z,8
2019-01-08T17:36:07.306Z,8
2019-01-08T17:40:00.758Z,8
2019-01-08T17:45:01.042Z,8
2019-01-08T17:50:01.115Z,8
2019-01-08T17:55:02.360Z,8
2019-01-08T18:00:00.911Z,8
2019-01-08T18:05:01.283Z,8
2019-01-08T18:10:00.843Z,8
2019-01-08T18:15:01.126Z,8
2019-01-08T18:20:01.160Z,8
2019-01-08T18:25:03.096Z,8
2019-01-08T18:30:01.867Z,8
2019-01-08T18:35:01.009Z,8
2019-01-08T18:40:00.851Z,8
2019-01-08T18:45:00.535Z,8
2019-01-08T18:50:00.774Z,8
2019-01-08T18:56:02.410Z,4
2019-01-08T19:15:32.810Z,44
2019-01-08T19:20:01.775Z,8
2019-01-08T19:26:03.280Z,10
2019-01-08T19:30:01.949Z,14
2019-01-08T19:36:04.873Z,12
2019-01-08T19:40:01.937Z,10
2019-01-08T19:45:01.938Z,11
2019-01-08T19:50:02.111Z,14
2019-01-08T20:10:09.982Z,14
2019-01-08T20:15:02.007Z,12
2019-01-08T20:20:02.568Z,10
2019-01-08T20:25:15.059Z,15
2019-01-08T20:30:01.977Z,11
2019-01-08T20:36:05.871Z,12
2019-01-08T20:40:03.283Z,11
2019-01-08T20:45:02.282Z,8
2019-01-08T20:50:01.991Z,10
2019-01-08T20:55:02.593Z,10
2019-01-08T22:10:28.349Z,10
2019-01-08T22:15:02.453Z,13
2019-01-08T22:20:02.740Z,11
2019-01-08T22:25:02.016Z,9
2019-01-08T22:30:02.271Z,10
2019-01-08T22:35:02.749Z,8
2019-01-08T22:40:03.059Z,7
2019-01-08T22:45:02.157Z,9
2019-01-08T22:50:02.061Z,8
2019-01-08T22:55:05.385Z,9
2019-01-08T23:00:02.490Z,9
2019-01-08T23:05:10.575Z,8
2019-01-08T23:10:01.908Z,8
2019-01-08T23:30:22.747Z,9
2019-01-08T23:35:02.572Z,5
2019-01-08T23:40:07.337Z,9
2019-01-08T23:46:11.894Z,10
2019-01-08T23:50:01.934Z,6
2019-01-08T23:55:01.899Z,4
